createdAt,value
2018-12-03T00:01:06.996Z,5.60
2018-12-03T00:03:36.056Z,5.80
2018-12-03T00:06:04.377Z,5.57
2018-12-03T00:08:32.628Z,6.03
2018-12-03T00:11:00.857Z,7.50
2018-12-03T00:13:29.082Z,8.50
2018-12-03T00:15:57.285Z,9.00
2018-12-03T00:18:25.533Z,10.10
2018-12-03T00:20:53.780Z,10.03
2018-12-03T00:23:22.005Z,10.47
2018-12-03T00:25:50.257Z,10.47
2018-12-03T00:28:18.467Z,10.67
2018-12-03T00:36:32.155Z,11.73
2018-12-03T00:39:00.388Z,12.00
2018-12-03T00:41:28.632Z,11.03
2018-12-03T00:43:56.867Z,10.60
2018-12-03T00:46:25.095Z,9.30
2018-12-03T00:48:55.345Z,10.03
2018-12-03T00:51:23.609Z,10.50
2018-12-03T00:53:51.839Z,10.03
2018-12-03T00:56:20.093Z,10.00
2018-12-03T00:58:48.312Z,9.23
2018-12-03T01:01:16.567Z,8.43
2018-12-03T01:03:44.807Z,7.03
2018-12-03T01:06:13.062Z,8.23
2018-12-03T01:08:48.681Z,7.20
2018-12-03T01:11:16.933Z,5.63
2018-12-03T01:13:45.144Z,5.90
2018-12-03T01:16:18.113Z,4.00
2018-12-03T01:18:46.354Z,4.00
2018-12-03T01:21:14.571Z,3.90
2018-12-03T01:23:42.795Z,4.03
2018-12-03T01:26:10.999Z,3.80
2018-12-03T01:28:39.221Z,3.10
2018-12-03T01:31:26.196Z,3.30
2018-12-03T01:33:54.407Z,3.53
2018-12-03T01:36:22.660Z,3.07
2018-12-03T01:38:50.890Z,3.10
2018-12-03T01:41:19.117Z,3.70
2018-12-03T01:43:47.335Z,2.97
2018-12-03T01:46:15.540Z,3.40
2018-12-03T01:48:43.873Z,4.63
2018-12-03T01:51:12.037Z,5.80
2018-12-03T01:53:40.255Z,5.67
2018-12-03T01:56:08.475Z,5.67
2018-12-03T01:58:36.675Z,6.07
2018-12-03T02:01:05.011Z,5.77
2018-12-03T02:03:33.265Z,5.70
2018-12-03T02:06:01.555Z,5.67
2018-12-03T02:08:29.797Z,5.00
2018-12-03T02:10:58.094Z,4.80
2018-12-03T02:13:26.308Z,5.30
2018-12-03T02:15:54.513Z,4.40
2018-12-03T02:18:22.838Z,3.80
2018-12-03T02:20:51.065Z,3.73
2018-12-03T02:23:19.314Z,3.63
2018-12-03T02:25:47.537Z,3.90
2018-12-03T02:28:15.737Z,4.27
2018-12-03T02:30:43.986Z,4.00
2018-12-03T02:33:12.183Z,4.97
2018-12-03T02:35:40.402Z,5.53
2018-12-03T02:38:08.625Z,4.90
2018-12-03T02:40:41.521Z,5.43
2018-12-03T02:43:09.725Z,5.27
2018-12-03T02:45:37.965Z,5.70
2018-12-03T02:48:06.444Z,4.97
2018-12-03T02:50:41.391Z,4.80
2018-12-03T02:53:09.608Z,5.00
2018-12-03T02:55:37.836Z,5.33
2018-12-03T02:58:06.064Z,4.00
2018-12-03T03:00:38.721Z,5.50
2018-12-03T03:03:07.264Z,5.60
2018-12-03T03:05:35.749Z,4.00
2018-12-03T03:08:04.033Z,2.40
2018-12-03T03:10:32.267Z,2.30
2018-12-03T03:13:00.527Z,1.93
2018-12-03T03:15:28.757Z,2.40
2018-12-03T03:17:56.960Z,2.00
2018-12-03T03:20:25.168Z,2.23
2018-12-03T03:22:53.388Z,2.30
2018-12-03T03:25:21.636Z,2.30
2018-12-03T03:27:49.935Z,2.33
2018-12-03T03:30:18.170Z,2.63
2018-12-03T03:32:46.413Z,2.43
2018-12-03T03:35:15.011Z,4.27
2018-12-03T03:37:43.279Z,2.87
2018-12-03T03:40:14.075Z,2.63
2018-12-03T03:42:43.419Z,2.30
2018-12-03T03:45:16.945Z,1.70
2018-12-03T03:47:45.199Z,1.40
2018-12-03T03:50:13.408Z,1.60
2018-12-03T03:52:41.629Z,1.67
2018-12-03T03:55:10.528Z,2.00
2018-12-03T03:57:38.778Z,1.60
2018-12-03T04:00:11.163Z,1.67
2018-12-03T04:02:39.589Z,1.47
2018-12-03T04:05:09.274Z,1.57
2018-12-03T04:07:37.490Z,1.73
2018-12-03T04:10:08.980Z,1.93
2018-12-03T04:12:37.231Z,1.53
2018-12-03T04:15:07.740Z,2.07
2018-12-03T04:17:36.037Z,1.70
2018-12-03T04:20:07.513Z,2.00
2018-12-03T04:22:35.731Z,1.50
2018-12-03T04:25:04.100Z,1.43
2018-12-03T04:27:32.313Z,1.93
2018-12-03T04:30:00.546Z,2.40
2018-12-03T04:32:28.756Z,3.27
2018-12-03T04:34:57.005Z,3.57
2018-12-03T04:37:25.235Z,4.80
2018-12-03T04:39:53.445Z,3.50
2018-12-03T04:42:21.663Z,3.20
2018-12-03T04:44:49.902Z,2.63
2018-12-03T04:47:18.101Z,2.60
2018-12-03T04:49:46.337Z,2.17
2018-12-03T04:52:14.543Z,2.33
2018-12-03T04:54:42.794Z,3.70
2018-12-03T04:57:11.004Z,3.07
2018-12-03T04:59:39.253Z,2.10
2018-12-03T05:02:07.463Z,1.57
2018-12-03T05:04:35.653Z,1.90
2018-12-03T05:07:04.063Z,1.83
2018-12-03T05:09:32.294Z,1.63
2018-12-03T05:12:03.840Z,1.60
2018-12-03T05:14:32.052Z,1.10
2018-12-03T05:17:00.234Z,1.43
2018-12-03T05:19:28.436Z,1.60
2018-12-03T05:21:56.662Z,1.23
2018-12-03T05:24:24.884Z,1.33
2018-12-03T05:26:53.092Z,1.73
2018-12-03T05:29:21.304Z,1.53
2018-12-03T05:31:53.297Z,1.50
2018-12-03T05:34:21.497Z,1.40
2018-12-03T05:36:49.716Z,1.43
2018-12-03T05:39:17.921Z,1.70
2018-12-03T05:41:46.148Z,1.70
2018-12-03T05:44:14.352Z,1.77
2018-12-03T05:46:42.563Z,2.30
2018-12-03T05:49:10.783Z,3.20
2018-12-03T05:51:39.026Z,3.23
2018-12-03T05:54:07.223Z,3.10
2018-12-03T05:56:35.477Z,3.40
2018-12-03T05:59:03.739Z,2.90
2018-12-03T06:01:31.956Z,3.23
2018-12-03T06:04:00.192Z,3.90
2018-12-03T06:06:28.409Z,5.43
2018-12-03T06:08:56.653Z,3.50
2018-12-03T06:11:24.895Z,3.50
2018-12-03T06:13:53.104Z,2.97
2018-12-03T06:16:21.312Z,3.90
2018-12-03T06:18:49.560Z,5.23
2018-12-03T06:21:17.819Z,4.70
2018-12-03T06:23:46.047Z,4.73
2018-12-03T06:26:14.267Z,3.20
2018-12-03T06:28:42.491Z,3.17
2018-12-03T06:31:10.711Z,3.70
2018-12-03T06:33:38.925Z,4.20
2018-12-03T06:36:07.146Z,4.20
2018-12-03T06:38:35.351Z,4.27
2018-12-03T06:41:03.822Z,4.70
2018-12-03T06:43:32.032Z,4.27
2018-12-03T06:46:00.264Z,5.63
2018-12-03T06:48:28.492Z,4.23
2018-12-03T06:50:56.688Z,3.37
2018-12-03T06:53:24.884Z,1.70
2018-12-03T06:55:53.132Z,1.63
2018-12-03T06:58:21.353Z,1.63
2018-12-03T07:00:49.607Z,1.03
2018-12-03T07:03:17.860Z,1.03
2018-12-03T07:05:48.747Z,1.93
2018-12-03T07:08:17.272Z,1.30
2018-12-03T07:10:45.511Z,1.20
2018-12-03T07:13:16.621Z,2.20
2018-12-03T07:15:45.567Z,2.50
2018-12-03T07:18:14.081Z,1.33
2018-12-03T07:20:42.328Z,2.00
2018-12-03T07:23:10.523Z,1.73
2018-12-03T07:25:38.737Z,2.63
2018-12-03T07:28:07.054Z,2.70
2018-12-03T07:30:35.306Z,3.67
2018-12-03T07:33:03.637Z,4.33
2018-12-03T07:35:31.874Z,4.20
2018-12-03T07:38:00.084Z,3.37
2018-12-03T07:40:34.853Z,3.50
2018-12-03T07:43:03.113Z,3.60
2018-12-03T07:45:31.323Z,3.70
2018-12-03T07:47:59.536Z,3.50
2018-12-03T07:50:27.766Z,4.30
2018-12-03T07:52:56.002Z,5.00
2018-12-03T07:55:25.213Z,4.27
2018-12-03T07:58:01.132Z,4.40
2018-12-03T08:00:36.424Z,6.00
2018-12-03T08:03:05.237Z,4.50
2018-12-03T08:05:33.625Z,4.70
2018-12-03T08:08:01.947Z,4.63
2018-12-03T08:10:32.572Z,4.13
2018-12-03T08:13:08.856Z,4.60
2018-12-03T08:15:37.077Z,3.87
2018-12-03T08:18:08.301Z,5.53
2018-12-03T08:20:43.469Z,5.30
2018-12-03T08:23:18.021Z,5.90
2018-12-03T08:25:46.289Z,5.77
2018-12-03T08:28:14.604Z,5.63
2018-12-03T08:30:42.805Z,4.03
2018-12-03T08:33:15.421Z,3.40
2018-12-03T08:35:43.851Z,3.50
2018-12-03T08:38:15.865Z,2.53
2018-12-03T08:40:44.192Z,2.63
2018-12-03T08:43:17.952Z,2.70
2018-12-03T08:45:48.294Z,2.27
2018-12-03T08:48:18.567Z,2.17
2018-12-03T08:50:47.720Z,3.10
2018-12-03T08:53:15.980Z,1.93
2018-12-03T08:55:44.278Z,2.73
2018-12-03T08:58:15.592Z,2.60
2018-12-03T09:00:45.281Z,2.80
2018-12-03T09:03:23.653Z,2.77
2018-12-03T09:05:51.971Z,3.00
2018-12-03T09:08:20.359Z,2.80
2018-12-03T09:10:48.636Z,2.57
2018-12-03T09:13:20.545Z,2.87
2018-12-03T09:15:57.623Z,3.00
2018-12-03T09:18:31.344Z,2.63
2018-12-03T09:21:00.238Z,3.30
2018-12-03T09:23:29.453Z,2.50
2018-12-03T09:25:57.776Z,2.87
2018-12-03T09:28:26.080Z,3.07
2018-12-03T09:30:54.351Z,3.70
2018-12-03T09:33:22.624Z,3.40
2018-12-03T09:35:50.881Z,3.30
2018-12-03T09:38:19.122Z,3.83
2018-12-03T09:40:47.335Z,4.57
2018-12-03T09:43:15.632Z,3.23
2018-12-03T09:45:43.844Z,4.00
2018-12-03T09:48:12.089Z,3.30
2018-12-03T09:50:41.331Z,3.57
2018-12-03T09:53:09.577Z,3.30
2018-12-03T09:55:37.804Z,2.97
2018-12-03T09:58:08.637Z,3.83
2018-12-03T10:00:36.868Z,3.60
2018-12-03T10:03:09.634Z,3.20
2018-12-03T10:05:40.313Z,2.93
2018-12-03T10:08:08.539Z,3.50
2018-12-03T10:10:36.734Z,3.20
2018-12-03T10:13:07.646Z,3.43
2018-12-03T10:15:36.908Z,3.73
2018-12-03T10:18:06.489Z,3.87
2018-12-03T10:20:34.697Z,4.10
2018-12-03T10:23:05.163Z,4.13
2018-12-03T10:25:33.362Z,4.00
2018-12-03T10:28:04.260Z,4.20
2018-12-03T10:30:32.461Z,5.53
2018-12-03T10:33:01.755Z,4.90
2018-12-03T10:35:36.565Z,5.30
2018-12-03T10:38:12.414Z,4.97
2018-12-03T10:40:44.308Z,4.37
2018-12-03T10:43:12.708Z,4.73
2018-12-03T10:45:41.104Z,4.63
2018-12-03T10:48:09.325Z,4.57
2018-12-03T10:50:37.575Z,4.57
2018-12-03T10:53:06.091Z,4.03
2018-12-03T10:55:37.307Z,3.97
2018-12-03T10:58:08.685Z,4.00
2018-12-03T11:02:52.280Z,3.60
2018-12-03T11:05:34.745Z,3.87
2018-12-03T11:08:03.117Z,3.90
2018-12-03T11:10:39.681Z,3.53
2018-12-03T11:13:07.944Z,3.27
2018-12-03T11:15:36.141Z,3.57
2018-12-03T11:18:10.126Z,3.77
2018-12-03T11:20:38.382Z,3.83
2018-12-03T11:23:09.234Z,3.37
2018-12-03T11:25:42.430Z,3.30
2018-12-03T11:28:13.739Z,3.90
2018-12-03T11:30:49.815Z,3.80
2018-12-03T11:33:22.145Z,3.80
2018-12-03T11:35:50.709Z,4.33
2018-12-03T11:38:28.690Z,3.93
2018-12-03T11:40:57.312Z,3.83
2018-12-03T11:43:27.513Z,4.10
2018-12-03T11:45:55.861Z,3.73
2018-12-03T11:48:29.368Z,4.17
2018-12-03T11:50:58.680Z,3.40
2018-12-03T11:53:27.989Z,3.50
2018-12-03T11:55:56.244Z,3.60
2018-12-03T11:58:28.523Z,3.37
2018-12-03T12:01:07.675Z,3.43
2018-12-03T12:03:42.749Z,3.97
2018-12-03T12:06:11.912Z,4.00
2018-12-03T12:08:43.449Z,4.40
2018-12-03T12:14:26.201Z,4.43
2018-12-03T12:16:54.427Z,4.50
2018-12-03T12:19:22.645Z,4.43
2018-12-03T12:21:50.872Z,4.47
2018-12-03T12:24:19.125Z,4.40
2018-12-03T12:26:47.396Z,3.53
2018-12-03T12:29:16.653Z,2.93
2018-12-03T12:31:44.938Z,3.00
2018-12-03T12:34:23.116Z,2.87
2018-12-03T12:36:51.467Z,3.43
2018-12-03T12:39:19.845Z,3.30
2018-12-03T12:41:48.066Z,2.67
2018-12-03T12:44:24.101Z,2.50
2018-12-03T12:46:53.467Z,3.30
2018-12-03T12:49:23.516Z,2.67
2018-12-03T12:51:51.858Z,2.73
2018-12-03T12:54:19.979Z,2.87
2018-12-03T12:56:48.980Z,2.67
2018-12-03T12:59:17.704Z,3.03
2018-12-03T13:01:47.032Z,2.90
2018-12-03T13:04:15.275Z,3.43
2018-12-03T13:06:43.512Z,3.27
2018-12-03T13:09:11.787Z,3.70
2018-12-03T13:11:40.813Z,4.17
2018-12-03T13:14:10.923Z,4.33
2018-12-03T13:16:39.344Z,3.10
2018-12-03T13:19:08.691Z,3.30
2018-12-03T13:21:36.907Z,3.57
2018-12-03T13:24:05.566Z,3.57
2018-12-03T13:26:35.678Z,3.17
2018-12-03T13:29:03.934Z,3.83
2018-12-03T13:31:32.229Z,3.13
2018-12-03T13:34:00.487Z,3.07
2018-12-03T13:36:29.828Z,3.30
2018-12-03T13:38:58.204Z,3.40
2018-12-03T13:41:26.704Z,3.67
2018-12-03T13:43:55.037Z,3.77
2018-12-03T13:46:23.337Z,3.53
2018-12-03T13:48:51.564Z,3.53
2018-12-03T13:51:19.775Z,3.80
2018-12-03T13:53:48.005Z,3.53
2018-12-03T13:56:16.234Z,3.70
2018-12-03T13:58:44.471Z,3.60
2018-12-03T14:01:12.692Z,3.33
2018-12-03T14:03:41.424Z,3.37
2018-12-03T14:06:17.944Z,3.33
2018-12-03T14:09:27.102Z,3.50
2018-12-03T14:12:15.144Z,3.73
2018-12-03T14:15:12.600Z,3.70
2018-12-03T14:17:47.347Z,3.83
2018-12-03T14:20:15.770Z,3.77
2018-12-03T14:22:57.480Z,3.57
2018-12-03T14:25:25.731Z,3.50
2018-12-03T14:27:53.985Z,3.43
2018-12-03T14:30:22.307Z,3.13
2018-12-03T14:32:50.529Z,3.30
2018-12-03T14:35:18.737Z,3.00
2018-12-03T14:37:46.976Z,3.00
2018-12-03T14:40:15.240Z,3.17
2018-12-03T14:46:21.385Z,3.83
2018-12-03T14:48:48.781Z,4.10
2018-12-03T14:51:22.271Z,3.50
2018-12-03T14:53:49.708Z,3.63
2018-12-03T14:56:25.084Z,3.87
2018-12-03T14:58:52.460Z,4.50
2018-12-03T15:01:19.844Z,4.27
2018-12-03T15:03:47.231Z,4.80
2018-12-03T15:06:14.611Z,5.23
2018-12-03T15:08:42.029Z,5.83
2018-12-03T15:11:09.415Z,5.90
2018-12-03T15:13:36.816Z,6.03
2018-12-03T15:16:04.283Z,6.43
2018-12-03T15:18:31.742Z,6.80
2018-12-03T15:20:59.186Z,6.10
2018-12-03T15:23:29.872Z,4.97
2018-12-03T15:26:06.857Z,5.20
2018-12-03T15:28:40.239Z,4.90
2018-12-03T15:31:13.983Z,4.77
2018-12-03T15:33:51.207Z,4.73
2018-12-03T15:36:29.240Z,4.77
2018-12-03T15:39:02.275Z,5.20
2018-12-03T15:41:37.081Z,5.00
2018-12-03T15:44:08.286Z,5.10
2018-12-03T15:46:42.246Z,5.73
2018-12-03T15:54:56.832Z,5.10
2018-12-03T15:57:29.003Z,4.87
2018-12-03T15:59:58.218Z,4.40
2018-12-03T16:02:27.041Z,5.27
2018-12-03T16:04:57.908Z,4.73
2018-12-03T16:07:27.108Z,4.50
2018-12-03T16:09:57.269Z,4.20
2018-12-03T16:12:30.967Z,4.67
2018-12-03T16:15:05.697Z,3.90
2018-12-03T16:17:39.309Z,4.20
2018-12-03T16:20:16.387Z,4.17
2018-12-03T16:22:56.909Z,4.17
2018-12-03T16:25:26.544Z,3.53
2018-12-03T16:27:56.959Z,4.10
2018-12-03T16:30:30.729Z,3.97
2018-12-03T16:33:09.368Z,3.37
2018-12-03T16:35:38.577Z,3.73
2018-12-03T16:38:09.399Z,3.77
2018-12-03T16:40:39.914Z,3.83
2018-12-03T16:43:13.800Z,3.70
2018-12-03T16:45:47.490Z,3.50
2018-12-03T16:48:20.744Z,2.47
2018-12-03T16:50:54.076Z,2.73
2018-12-03T16:53:27.998Z,2.87
2018-12-03T16:56:01.960Z,3.20
2018-12-03T16:58:37.047Z,3.20
2018-12-03T17:01:11.030Z,2.57
2018-12-03T17:03:44.935Z,4.40
2018-12-03T17:06:18.705Z,3.30
2018-12-03T17:08:52.060Z,2.80
2018-12-03T17:11:25.978Z,2.37
2018-12-03T17:13:59.077Z,2.70
2018-12-03T17:16:30.258Z,2.30
2018-12-03T17:19:04.309Z,2.47
2018-12-03T17:21:38.533Z,3.80
2018-12-03T17:24:12.305Z,3.73
2018-12-03T17:26:47.510Z,3.23
2018-12-03T17:29:21.560Z,3.20
2018-12-03T17:31:59.821Z,3.40
2018-12-03T17:34:35.902Z,3.80
2018-12-03T17:40:17.915Z,3.30
2018-12-03T17:42:47.105Z,3.10
2018-12-03T17:45:18.561Z,3.50
2018-12-03T17:47:47.301Z,3.50
2018-12-03T17:50:21.324Z,3.60
2018-12-03T17:52:50.325Z,3.80
2018-12-03T17:55:24.222Z,3.60
2018-12-03T17:57:59.006Z,4.27
2018-12-03T18:00:32.162Z,3.87
2018-12-03T18:03:06.336Z,3.90
2018-12-03T18:05:58.519Z,4.30
2018-12-03T18:08:32.443Z,3.47
2018-12-03T18:11:05.742Z,3.60
2018-12-03T18:13:38.809Z,3.90
2018-12-03T18:16:24.341Z,3.40
2018-12-03T18:18:57.710Z,4.17
2018-12-03T18:21:34.081Z,4.00
2018-12-03T18:24:05.107Z,4.00
2018-12-03T18:26:34.232Z,4.03
2018-12-03T18:29:08.260Z,4.07
2018-12-03T18:31:42.216Z,3.77
2018-12-03T18:34:13.313Z,3.70
2018-12-03T18:36:42.297Z,4.10
2018-12-03T18:39:16.199Z,4.27
2018-12-03T18:41:50.233Z,3.83
2018-12-03T18:44:23.887Z,4.37
2018-12-03T18:46:58.839Z,3.50
2018-12-03T18:49:32.762Z,3.83
2018-12-03T18:52:06.827Z,4.23
2018-12-03T18:54:38.022Z,4.30
2018-12-03T18:57:12.088Z,4.43
2018-12-03T18:59:46.053Z,3.70
2018-12-03T19:02:20.036Z,4.30
2018-12-03T19:04:51.275Z,3.83
2018-12-03T19:07:20.191Z,4.37
2018-12-03T19:09:54.045Z,3.90
2018-12-03T19:12:28.099Z,3.93
2018-12-03T19:15:02.037Z,4.13
2018-12-03T19:17:32.978Z,4.20
2018-12-03T19:20:07.254Z,3.63
2018-12-03T19:22:41.135Z,3.70
2018-12-03T19:25:14.905Z,4.10
2018-12-03T19:27:57.484Z,4.00
2018-12-03T19:30:31.087Z,3.87
2018-12-03T19:33:01.445Z,4.47
2018-12-03T19:35:35.323Z,4.50
2018-12-03T19:38:16.202Z,5.10
2018-12-03T19:40:45.192Z,4.80
2018-12-03T19:43:18.965Z,5.10
2018-12-03T19:46:00.269Z,4.27
2018-12-03T19:48:33.977Z,4.33
2018-12-03T19:51:13.751Z,4.00
2018-12-03T19:53:44.412Z,4.13
2018-12-03T19:56:13.508Z,4.47
2018-12-03T19:58:55.224Z,4.17
2018-12-03T20:01:35.187Z,3.67
2018-12-03T20:04:17.473Z,3.70
2018-12-03T20:06:51.424Z,3.23
2018-12-03T20:09:30.399Z,3.60
2018-12-03T20:12:04.009Z,3.50
2018-12-03T20:14:37.812Z,3.70
2018-12-03T20:17:08.256Z,3.43
2018-12-03T20:19:41.746Z,3.33
2018-12-03T20:22:10.341Z,3.60
2018-12-03T20:24:43.439Z,4.30
2018-12-03T20:27:17.308Z,3.50
2018-12-03T20:29:52.343Z,3.90
2018-12-03T20:32:25.442Z,3.73
2018-12-03T20:34:57.709Z,3.73
2018-12-03T20:37:31.568Z,3.03
2018-12-03T20:40:09.683Z,4.07
2018-12-03T20:42:40.438Z,2.90
2018-12-03T20:45:13.377Z,3.67
2018-12-03T20:47:44.992Z,3.33
2018-12-03T20:50:19.036Z,3.57
2018-12-03T20:52:49.455Z,3.97
2018-12-03T20:55:20.618Z,3.27
2018-12-03T20:57:50.636Z,3.53
2018-12-03T21:00:24.537Z,3.80
2018-12-03T21:02:54.929Z,3.30
2018-12-03T21:05:32.535Z,3.63
2018-12-03T21:08:01.961Z,3.60
2018-12-03T21:10:34.852Z,3.77
2018-12-03T21:13:08.824Z,3.97
2018-12-03T21:15:41.035Z,3.60
2018-12-03T21:18:18.993Z,3.20
2018-12-03T21:20:52.250Z,3.63
2018-12-03T21:23:26.141Z,4.03
2018-12-03T21:25:59.245Z,3.50
2018-12-03T21:28:33.128Z,3.30
2018-12-03T21:31:07.532Z,3.17
2018-12-03T21:33:41.020Z,3.37
2018-12-03T21:36:14.411Z,3.77
2018-12-03T21:38:44.764Z,3.03
2018-12-03T21:41:18.429Z,3.33
2018-12-03T21:43:53.383Z,3.50
2018-12-03T21:46:27.365Z,2.93
2018-12-03T21:49:01.342Z,3.50
2018-12-03T21:51:31.813Z,3.27
2018-12-03T21:54:05.385Z,3.03
2018-12-03T21:56:38.570Z,3.47
2018-12-03T21:59:08.985Z,3.60
2018-12-03T22:01:40.016Z,3.00
2018-12-03T22:04:10.505Z,3.20
2018-12-03T22:06:41.730Z,3.80
2018-12-03T22:09:12.055Z,3.97
2018-12-03T22:11:46.927Z,3.77
2018-12-03T22:14:17.540Z,3.90
2018-12-03T22:16:48.757Z,3.83
2018-12-03T22:19:20.012Z,3.60
2018-12-03T22:21:54.768Z,3.40
2018-12-03T22:24:26.080Z,3.30
2018-12-03T22:26:59.153Z,3.33
2018-12-03T22:29:33.179Z,3.53
2018-12-03T22:32:07.280Z,3.37
2018-12-03T22:34:37.595Z,3.63
2018-12-03T22:37:10.888Z,2.77
2018-12-03T22:39:46.331Z,3.17
2018-12-03T22:42:17.381Z,3.53
2018-12-03T22:44:48.248Z,3.43
2018-12-03T22:47:17.877Z,3.03
2018-12-03T22:49:51.882Z,3.10
2018-12-03T22:54:52.122Z,2.93
2018-12-03T22:57:25.418Z,3.17
2018-12-03T22:59:59.292Z,2.87
2018-12-03T23:02:39.602Z,3.30
2018-12-03T23:05:10.115Z,3.27
2018-12-03T23:07:43.364Z,3.17
2018-12-03T23:10:12.604Z,2.77
2018-12-03T23:12:50.033Z,2.83
2018-12-03T23:15:36.293Z,2.63
2018-12-03T23:18:05.529Z,2.30
2018-12-03T23:20:38.901Z,2.80
2018-12-03T23:23:10.482Z,2.57
2018-12-03T23:28:44.382Z,2.60
2018-12-03T23:31:15.436Z,3.10
2018-12-03T23:33:49.226Z,2.57
2018-12-03T23:36:20.380Z,2.87
2018-12-03T23:38:54.069Z,2.80
2018-12-03T23:41:25.283Z,3.03
2018-12-03T23:44:06.935Z,3.27
2018-12-03T23:46:42.859Z,3.30
2018-12-03T23:49:14.093Z,3.40
2018-12-03T23:51:47.269Z,3.90
2018-12-03T23:56:52.843Z,3.30
2018-12-03T23:59:27.897Z,3.37
